[ ตารางข้อมูล ] [ Min-Max ] [ วันนี้4 ] [ วันนี้2 ] [ เทียบ3วัน A ] [ เทียบ4วัน B ]   

วันนี้2   [ ◀ ช่วงเก่ากว่า ] [ ช่วงที่ 230 ] [ ช่วงใหม่กว่า ▶ ] [ ล่าสุด ]    [ 3 ชั่วโมง ] [ 6 ชั่วโมง ] [ 12 ชั่วโมง ] [ 24 ชั่วโมง ]   วันนี้2

อุณภูมิตู้ Knockdown4529  ราย 3 ชั่วโมง  ที่วัดได้ ในช่วงวันเวลา 07/04/2026 (15:19) ถึง 07/04/2026 (18:19) 
ความชื้นในตู้ Knockdown4529  ราย 3 ชั่วโมง  ที่วัดได้ ในช่วงวันเวลา 07/04/2026 (15:19) ถึง 07/04/2026 (18:19) 

 
DS18B20SHTC3 
IDDate d/m/Y & Timedata1
สูง
data2
ต่ำ
data3
นอก
temp
pcb
hum
pcb
Time
 9709  07/04/2026 18:15:22  32.2  32.0  31.0  32.1  68.0  18:15 
 9708  07/04/2026 18:10:40  32.3  32.1  31.0  32.3  67.9  18:10 
 9707  07/04/2026 18:05:57  32.3  32.1  31.1  32.2  67.9  18:05 
 9706  07/04/2026 18:01:16  32.4  32.1  31.1  32.3  67.7  18:01 
 9705  07/04/2026 17:56:34  32.4  32.1  31.1  32.3  67.6  17:56 
 9704  07/04/2026 17:51:52  32.4  32.0  31.0  32.2  67.5  17:51 
 9703  07/04/2026 17:47:11  32.4  32.1  31.0  32.5  67.1  17:47 
 9702  07/04/2026 17:42:29  32.6  32.1  31.2  32.3  66.5  17:42 
 9701  07/04/2026 17:37:47  32.7  32.3  31.5  32.7  65.8  17:37 
 9700  07/04/2026 17:33:06  32.8  32.4  31.8  32.5  65.3  17:33 
 9699  07/04/2026 17:28:24  32.8  32.4  31.9  32.5  65.0  17:28 
 9698  07/04/2026 17:23:42  32.8  32.5  31.9  32.6  64.7  17:23 
 9697  07/04/2026 17:18:59  32.9  32.6  32.1  32.8  64.0  17:18 
 9696  07/04/2026 17:14:17  32.9  32.7  32.3  32.8  63.7  17:14 
 9695  07/04/2026 17:09:34  32.9  32.8  32.5  32.8  63.4  17:09 
 9694  07/04/2026 17:04:52  32.9  32.8  32.5  32.8  63.0  17:04 
 9693  07/04/2026 17:00:11  33.1  32.9  32.7  32.8  62.8  17:00 
 9692  07/04/2026 16:55:27  33.1  32.9  32.7  32.9  62.6  16:55 
 9691  07/04/2026 16:50:46  33.2  33.0  33.0  33.0  62.9  16:50 
 9690  07/04/2026 16:46:03  33.4  33.1  33.1  33.1  63.1  16:46 
 9689  07/04/2026 16:41:21  33.6  33.1  33.2  33.3  64.0  16:41 
 9688  07/04/2026 16:36:39  33.6  33.1  33.4  33.4  63.8  16:36 
 9687  07/04/2026 16:31:57  33.4  33.2  33.3  33.3  63.1  16:31 
 9686  07/04/2026 16:27:16  33.5  33.2  33.5  33.3  63.7  16:27 

Data every 5 minute.


ใช้เวลาประมวลผล 0.00331 วินาที